sensor_id;sensor_type;location;lat;lon;timestamp;P1;durP1;ratioP1;P2;durP2;ratioP2
59147;SDS011;44930;52.878;6.168;2023-05-10T00:00:11;13.40;;;10.05;;
59147;SDS011;44930;52.878;6.168;2023-05-10T00:02:37;11.75;;;9.73;;
59147;SDS011;44930;52.878;6.168;2023-05-10T00:05:04;14.32;;;10.70;;
59147;SDS011;44930;52.878;6.168;2023-05-10T00:07:30;12.10;;;10.52;;
59147;SDS011;44930;52.878;6.168;2023-05-10T00:09:55;14.20;;;10.57;;
59147;SDS011;44930;52.878;6.168;2023-05-10T00:12:21;15.20;;;11.45;;
59147;SDS011;44930;52.878;6.168;2023-05-10T00:14:46;13.15;;;11.00;;
59147;SDS011;44930;52.878;6.168;2023-05-10T00:17:12;17.23;;;11.55;;
59147;SDS011;44930;52.878;6.168;2023-05-10T00:19:38;14.73;;;11.20;;
59147;SDS011;44930;52.878;6.168;2023-05-10T00:22:03;15.75;;;12.25;;
59147;SDS011;44930;52.878;6.168;2023-05-10T00:24:29;18.05;;;11.63;;
59147;SDS011;44930;52.878;6.168;2023-05-10T00:26:54;14.00;;;11.40;;
59147;SDS011;44930;52.878;6.168;2023-05-10T00:29:20;13.25;;;10.93;;
59147;SDS011;44930;52.878;6.168;2023-05-10T00:31:46;14.85;;;11.23;;
59147;SDS011;44930;52.878;6.168;2023-05-10T00:34:11;14.25;;;11.32;;
59147;SDS011;44930;52.878;6.168;2023-05-10T00:36:37;14.80;;;10.85;;
59147;SDS011;44930;52.878;6.168;2023-05-10T00:39:02;14.30;;;9.75;;
59147;SDS011;44930;52.878;6.168;2023-05-10T00:41:28;13.93;;;10.23;;
59147;SDS011;44930;52.878;6.168;2023-05-10T00:43:57;15.18;;;10.40;;
59147;SDS011;44930;52.878;6.168;2023-05-10T00:46:22;13.23;;;9.70;;
59147;SDS011;44930;52.878;6.168;2023-05-10T00:48:48;12.40;;;9.77;;
59147;SDS011;44930;52.878;6.168;2023-05-10T00:51:14;12.05;;;9.02;;
59147;SDS011;44930;52.878;6.168;2023-05-10T00:53:40;13.80;;;9.77;;
59147;SDS011;44930;52.878;6.168;2023-05-10T00:56:06;12.43;;;9.27;;
59147;SDS011;44930;52.878;6.168;2023-05-10T00:58:32;13.55;;;9.48;;
59147;SDS011;44930;52.878;6.168;2023-05-10T01:00:58;12.85;;;9.60;;
59147;SDS011;44930;52.878;6.168;2023-05-10T01:03:25;16.15;;;9.52;;
59147;SDS011;44930;52.878;6.168;2023-05-10T01:05:51;14.68;;;9.25;;
59147;SDS011;44930;52.878;6.168;2023-05-10T01:08:17;12.45;;;9.07;;
59147;SDS011;44930;52.878;6.168;2023-05-10T01:10:43;13.63;;;9.27;;
59147;SDS011;44930;52.878;6.168;2023-05-10T01:13:09;11.98;;;9.48;;
59147;SDS011;44930;52.878;6.168;2023-05-10T01:15:36;11.85;;;8.93;;
59147;SDS011;44930;52.878;6.168;2023-05-10T01:18:02;12.55;;;8.65;;
59147;SDS011;44930;52.878;6.168;2023-05-10T01:20:29;11.07;;;8.40;;
59147;SDS011;44930;52.878;6.168;2023-05-10T01:23:10;12.00;;;8.55;;
59147;SDS011;44930;52.878;6.168;2023-05-10T01:37:28;14.70;;;9.52;;
59147;SDS011;44930;52.878;6.168;2023-05-10T01:40:05;9.77;;;8.77;;
59147;SDS011;44930;52.878;6.168;2023-05-10T01:42:48;12.90;;;8.77;;
59147;SDS011;44930;52.878;6.168;2023-05-10T01:45:28;10.02;;;8.27;;
59147;SDS011;44930;52.878;6.168;2023-05-10T01:48:09;9.93;;;8.30;;
59147;SDS011;44930;52.878;6.168;2023-05-10T01:50:36;12.57;;;8.13;;
59147;SDS011;44930;52.878;6.168;2023-05-10T01:53:05;11.23;;;8.02;;
59147;SDS011;44930;52.878;6.168;2023-05-10T01:55:33;10.25;;;7.55;;
59147;SDS011;44930;52.878;6.168;2023-05-10T01:58:03;10.05;;;7.43;;
59147;SDS011;44930;52.878;6.168;2023-05-10T02:00:31;9.45;;;7.65;;
59147;SDS011;44930;52.878;6.168;2023-05-10T02:02:58;9.40;;;7.80;;
59147;SDS011;44930;52.878;6.168;2023-05-10T02:05:26;8.80;;;7.90;;
59147;SDS011;44930;52.878;6.168;2023-05-10T02:07:54;8.60;;;7.40;;
59147;SDS011;44930;52.878;6.168;2023-05-10T02:10:21;8.70;;;7.13;;
59147;SDS011;44930;52.878;6.168;2023-05-10T02:12:47;8.30;;;7.38;;
59147;SDS011;44930;52.878;6.168;2023-05-10T02:15:16;7.97;;;6.97;;
59147;SDS011;44930;52.878;6.168;2023-05-10T02:17:45;8.73;;;7.07;;
59147;SDS011;44930;52.878;6.168;2023-05-10T02:20:12;9.80;;;6.70;;
59147;SDS011;44930;52.878;6.168;2023-05-10T02:22:39;8.43;;;7.18;;
59147;SDS011;44930;52.878;6.168;2023-05-10T02:25:06;8.77;;;7.15;;
59147;SDS011;44930;52.878;6.168;2023-05-10T02:27:35;10.68;;;7.40;;
59147;SDS011;44930;52.878;6.168;2023-05-10T02:30:02;9.68;;;7.15;;
59147;SDS011;44930;52.878;6.168;2023-05-10T02:32:30;9.35;;;7.20;;
59147;SDS011;44930;52.878;6.168;2023-05-10T02:34:56;8.25;;;6.72;;
59147;SDS011;44930;52.878;6.168;2023-05-10T02:37:23;9.13;;;7.57;;
59147;SDS011;44930;52.878;6.168;2023-05-10T02:39:52;8.05;;;6.85;;
59147;SDS011;44930;52.878;6.168;2023-05-10T02:42:21;10.80;;;6.75;;
59147;SDS011;44930;52.878;6.168;2023-05-10T02:44:50;8.18;;;6.15;;
59147;SDS011;44930;52.878;6.168;2023-05-10T02:47:19;10.82;;;6.60;;
59147;SDS011;44930;52.878;6.168;2023-05-10T02:49:45;6.65;;;5.95;;
59147;SDS011;44930;52.878;6.168;2023-05-10T02:52:11;8.65;;;6.28;;
59147;SDS011;44930;52.878;6.168;2023-05-10T02:54:43;9.40;;;8.02;;
59147;SDS011;44930;52.878;6.168;2023-05-10T02:57:11;11.57;;;9.23;;
59147;SDS011;44930;52.878;6.168;2023-05-10T02:59:41;11.57;;;9.38;;
59147;SDS011;44930;52.878;6.168;2023-05-10T03:02:08;10.40;;;9.30;;
59147;SDS011;44930;52.878;6.168;2023-05-10T03:04:34;11.75;;;9.80;;
59147;SDS011;44930;52.878;6.168;2023-05-10T03:06:59;12.60;;;10.48;;
59147;SDS011;44930;52.878;6.168;2023-05-10T03:09:25;13.48;;;9.40;;
59147;SDS011;44930;52.878;6.168;2023-05-10T03:12:03;11.65;;;9.70;;
59147;SDS011;44930;52.878;6.168;2023-05-10T03:14:42;12.27;;;9.68;;
59147;SDS011;44930;52.878;6.168;2023-05-10T03:20:04;11.98;;;9.73;;
59147;SDS011;44930;52.878;6.168;2023-05-10T03:22:36;11.98;;;10.27;;
59147;SDS011;44930;52.878;6.168;2023-05-10T03:25:04;13.35;;;9.23;;
59147;SDS011;44930;52.878;6.168;2023-05-10T03:27:33;11.27;;;9.52;;
59147;SDS011;44930;52.878;6.168;2023-05-10T03:30:01;12.07;;;9.98;;
59147;SDS011;44930;52.878;6.168;2023-05-10T03:32:28;14.15;;;9.40;;
59147;SDS011;44930;52.878;6.168;2023-05-10T03:34:56;10.20;;;8.82;;
59147;SDS011;44930;52.878;6.168;2023-05-10T03:37:22;12.77;;;10.13;;
59147;SDS011;44930;52.878;6.168;2023-05-10T03:39:47;12.07;;;9.52;;
59147;SDS011;44930;52.878;6.168;2023-05-10T03:42:13;12.32;;;9.23;;
59147;SDS011;44930;52.878;6.168;2023-05-10T03:44:39;11.25;;;9.00;;
59147;SDS011;44930;52.878;6.168;2023-05-10T03:47:05;10.52;;;8.43;;
59147;SDS011;44930;52.878;6.168;2023-05-10T03:49:31;9.27;;;8.13;;
59147;SDS011;44930;52.878;6.168;2023-05-10T03:51:57;8.60;;;7.35;;
59147;SDS011;44930;52.878;6.168;2023-05-10T03:54:22;10.80;;;7.75;;
59147;SDS011;44930;52.878;6.168;2023-05-10T03:56:48;9.80;;;7.32;;
59147;SDS011;44930;52.878;6.168;2023-05-10T03:59:13;9.35;;;7.60;;
59147;SDS011;44930;52.878;6.168;2023-05-10T04:01:39;7.82;;;6.95;;
59147;SDS011;44930;52.878;6.168;2023-05-10T04:04:04;9.25;;;7.75;;
59147;SDS011;44930;52.878;6.168;2023-05-10T04:06:30;9.25;;;7.30;;
59147;SDS011;44930;52.878;6.168;2023-05-10T04:08:56;9.25;;;6.72;;
59147;SDS011;44930;52.878;6.168;2023-05-10T04:11:24;9.40;;;7.32;;
59147;SDS011;44930;52.878;6.168;2023-05-10T04:13:50;8.57;;;7.20;;
59147;SDS011;44930;52.878;6.168;2023-05-10T04:16:16;9.98;;;7.72;;
59147;SDS011;44930;52.878;6.168;2023-05-10T04:18:41;9.43;;;7.60;;
59147;SDS011;44930;52.878;6.168;2023-05-10T04:21:13;11.10;;;8.40;;
59147;SDS011;44930;52.878;6.168;2023-05-10T04:23:39;11.32;;;7.55;;
59147;SDS011;44930;52.878;6.168;2023-05-10T04:26:05;9.45;;;7.40;;
59147;SDS011;44930;52.878;6.168;2023-05-10T04:28:30;11.20;;;8.38;;
59147;SDS011;44930;52.878;6.168;2023-05-10T04:31:03;10.70;;;7.97;;
59147;SDS011;44930;52.878;6.168;2023-05-10T04:33:29;8.48;;;7.00;;
59147;SDS011;44930;52.878;6.168;2023-05-10T04:35:55;11.63;;;8.13;;
59147;SDS011;44930;52.878;6.168;2023-05-10T04:38:21;10.07;;;8.02;;
59147;SDS011;44930;52.878;6.168;2023-05-10T04:40:47;11.82;;;7.18;;
59147;SDS011;44930;52.878;6.168;2023-05-10T04:43:12;11.07;;;8.20;;
59147;SDS011;44930;52.878;6.168;2023-05-10T04:45:38;11.82;;;7.80;;
59147;SDS011;44930;52.878;6.168;2023-05-10T04:48:03;8.10;;;7.05;;
59147;SDS011;44930;52.878;6.168;2023-05-10T04:50:29;10.35;;;8.45;;
59147;SDS011;44930;52.878;6.168;2023-05-10T04:52:55;12.05;;;8.85;;
59147;SDS011;44930;52.878;6.168;2023-05-10T04:55:20;11.80;;;8.90;;
59147;SDS011;44930;52.878;6.168;2023-05-10T04:57:46;11.75;;;8.63;;
59147;SDS011;44930;52.878;6.168;2023-05-10T05:00:11;11.45;;;8.63;;
59147;SDS011;44930;52.878;6.168;2023-05-10T05:02:37;15.18;;;9.55;;
59147;SDS011;44930;52.878;6.168;2023-05-10T05:05:03;14.30;;;9.05;;
59147;SDS011;44930;52.878;6.168;2023-05-10T05:07:29;11.57;;;8.45;;
59147;SDS011;44930;52.878;6.168;2023-05-10T05:09:55;8.93;;;7.78;;
59147;SDS011;44930;52.878;6.168;2023-05-10T05:12:21;11.18;;;8.68;;
59147;SDS011;44930;52.878;6.168;2023-05-10T05:14:46;9.05;;;7.82;;
59147;SDS011;44930;52.878;6.168;2023-05-10T05:17:12;8.82;;;7.72;;
59147;SDS011;44930;52.878;6.168;2023-05-10T05:19:38;11.02;;;7.93;;
59147;SDS011;44930;52.878;6.168;2023-05-10T05:22:03;9.52;;;7.65;;
59147;SDS011;44930;52.878;6.168;2023-05-10T05:24:34;11.40;;;8.85;;
59147;SDS011;44930;52.878;6.168;2023-05-10T05:27:01;12.57;;;8.55;;
59147;SDS011;44930;52.878;6.168;2023-05-10T05:29:26;12.98;;;8.55;;
59147;SDS011;44930;52.878;6.168;2023-05-10T05:31:52;11.05;;;8.98;;
59147;SDS011;44930;52.878;6.168;2023-05-10T05:34:18;13.52;;;9.05;;
59147;SDS011;44930;52.878;6.168;2023-05-10T05:36:45;11.98;;;8.90;;
59147;SDS011;44930;52.878;6.168;2023-05-10T05:39:11;15.65;;;9.73;;
59147;SDS011;44930;52.878;6.168;2023-05-10T05:41:36;13.02;;;9.75;;
59147;SDS011;44930;52.878;6.168;2023-05-10T05:44:02;11.40;;;8.95;;
59147;SDS011;44930;52.878;6.168;2023-05-10T05:46:27;14.18;;;9.00;;
59147;SDS011;44930;52.878;6.168;2023-05-10T05:48:53;13.48;;;9.13;;
59147;SDS011;44930;52.878;6.168;2023-05-10T05:51:18;12.18;;;8.85;;
59147;SDS011;44930;52.878;6.168;2023-05-10T05:53:44;11.40;;;9.00;;
59147;SDS011;44930;52.878;6.168;2023-05-10T05:56:10;11.90;;;8.48;;
59147;SDS011;44930;52.878;6.168;2023-05-10T05:58:35;11.60;;;8.80;;
59147;SDS011;44930;52.878;6.168;2023-05-10T06:01:01;13.43;;;9.20;;
59147;SDS011;44930;52.878;6.168;2023-05-10T06:03:26;10.38;;;8.65;;
59147;SDS011;44930;52.878;6.168;2023-05-10T06:05:52;15.00;;;8.93;;
59147;SDS011;44930;52.878;6.168;2023-05-10T06:08:17;14.23;;;9.50;;
59147;SDS011;44930;52.878;6.168;2023-05-10T06:10:43;11.25;;;9.00;;
59147;SDS011;44930;52.878;6.168;2023-05-10T06:13:09;12.38;;;9.70;;
59147;SDS011;44930;52.878;6.168;2023-05-10T06:15:35;13.68;;;9.77;;
59147;SDS011;44930;52.878;6.168;2023-05-10T06:18:00;12.65;;;8.68;;
59147;SDS011;44930;52.878;6.168;2023-05-10T06:20:26;11.43;;;8.52;;
59147;SDS011;44930;52.878;6.168;2023-05-10T06:22:52;13.93;;;9.55;;
59147;SDS011;44930;52.878;6.168;2023-05-10T06:25:18;13.85;;;9.00;;
59147;SDS011;44930;52.878;6.168;2023-05-10T06:27:43;13.27;;;8.48;;
59147;SDS011;44930;52.878;6.168;2023-05-10T06:30:09;10.02;;;7.07;;
59147;SDS011;44930;52.878;6.168;2023-05-10T06:32:36;13.93;;;8.80;;
59147;SDS011;44930;52.878;6.168;2023-05-10T06:35:01;10.88;;;7.85;;
59147;SDS011;44930;52.878;6.168;2023-05-10T06:37:27;12.60;;;7.68;;
59147;SDS011;44930;52.878;6.168;2023-05-10T06:39:53;11.38;;;8.13;;
59147;SDS011;44930;52.878;6.168;2023-05-10T06:42:18;11.45;;;7.53;;
59147;SDS011;44930;52.878;6.168;2023-05-10T06:44:44;11.90;;;6.88;;
59147;SDS011;44930;52.878;6.168;2023-05-10T06:47:09;13.55;;;7.38;;
59147;SDS011;44930;52.878;6.168;2023-05-10T06:49:35;13.38;;;7.20;;
59147;SDS011;44930;52.878;6.168;2023-05-10T06:52:00;12.32;;;7.13;;
59147;SDS011;44930;52.878;6.168;2023-05-10T06:54:26;12.00;;;6.93;;
59147;SDS011;44930;52.878;6.168;2023-05-10T06:56:51;12.32;;;6.35;;
59147;SDS011;44930;52.878;6.168;2023-05-10T06:59:17;12.30;;;7.05;;
59147;SDS011;44930;52.878;6.168;2023-05-10T07:01:44;9.18;;;6.10;;
59147;SDS011;44930;52.878;6.168;2023-05-10T07:04:09;7.13;;;4.90;;
59147;SDS011;44930;52.878;6.168;2023-05-10T07:06:35;11.15;;;5.45;;
59147;SDS011;44930;52.878;6.168;2023-05-10T07:09:01;9.68;;;6.05;;
59147;SDS011;44930;52.878;6.168;2023-05-10T07:11:26;8.27;;;5.13;;
59147;SDS011;44930;52.878;6.168;2023-05-10T07:13:52;8.82;;;5.65;;
59147;SDS011;44930;52.878;6.168;2023-05-10T07:16:18;9.27;;;5.45;;
59147;SDS011;44930;52.878;6.168;2023-05-10T07:18:43;10.65;;;6.32;;
59147;SDS011;44930;52.878;6.168;2023-05-10T07:21:09;16.63;;;7.85;;
59147;SDS011;44930;52.878;6.168;2023-05-10T07:23:34;12.85;;;8.38;;
59147;SDS011;44930;52.878;6.168;2023-05-10T07:26:00;14.82;;;8.05;;
59147;SDS011;44930;52.878;6.168;2023-05-10T07:28:27;14.52;;;8.65;;
59147;SDS011;44930;52.878;6.168;2023-05-10T07:30:52;14.55;;;9.45;;
59147;SDS011;44930;52.878;6.168;2023-05-10T07:33:18;15.45;;;8.80;;
59147;SDS011;44930;52.878;6.168;2023-05-10T07:35:44;14.43;;;9.35;;
59147;SDS011;44930;52.878;6.168;2023-05-10T07:38:10;18.35;;;9.05;;
59147;SDS011;44930;52.878;6.168;2023-05-10T07:40:36;14.35;;;9.57;;
59147;SDS011;44930;52.878;6.168;2023-05-10T07:43:02;12.93;;;9.48;;
59147;SDS011;44930;52.878;6.168;2023-05-10T07:45:27;12.40;;;8.40;;
59147;SDS011;44930;52.878;6.168;2023-05-10T07:47:53;13.55;;;8.85;;
59147;SDS011;44930;52.878;6.168;2023-05-10T07:50:19;9.90;;;6.60;;
59147;SDS011;44930;52.878;6.168;2023-05-10T07:52:46;10.27;;;6.15;;
59147;SDS011;44930;52.878;6.168;2023-05-10T07:55:11;5.85;;;4.32;;
59147;SDS011;44930;52.878;6.168;2023-05-10T07:57:37;5.47;;;3.72;;
59147;SDS011;44930;52.878;6.168;2023-05-10T08:00:03;5.65;;;4.15;;
59147;SDS011;44930;52.878;6.168;2023-05-10T08:02:29;4.43;;;3.40;;
59147;SDS011;44930;52.878;6.168;2023-05-10T08:04:55;5.57;;;3.72;;
59147;SDS011;44930;52.878;6.168;2023-05-10T08:07:20;5.82;;;3.95;;
59147;SDS011;44930;52.878;6.168;2023-05-10T08:09:46;5.97;;;4.05;;
59147;SDS011;44930;52.878;6.168;2023-05-10T08:12:12;5.07;;;3.60;;
59147;SDS011;44930;52.878;6.168;2023-05-10T08:14:37;10.35;;;5.63;;
59147;SDS011;44930;52.878;6.168;2023-05-10T08:17:03;14.75;;;10.30;;
59147;SDS011;44930;52.878;6.168;2023-05-10T08:19:29;15.05;;;10.18;;
59147;SDS011;44930;52.878;6.168;2023-05-10T08:21:54;15.95;;;11.80;;
59147;SDS011;44930;52.878;6.168;2023-05-10T08:24:20;20.50;;;14.05;;
59147;SDS011;44930;52.878;6.168;2023-05-10T08:26:46;20.20;;;13.57;;
59147;SDS011;44930;52.878;6.168;2023-05-10T08:29:12;23.13;;;15.10;;
59147;SDS011;44930;52.878;6.168;2023-05-10T08:31:38;18.13;;;14.15;;
59147;SDS011;44930;52.878;6.168;2023-05-10T08:34:04;20.77;;;14.70;;
59147;SDS011;44930;52.878;6.168;2023-05-10T08:36:30;22.90;;;15.30;;
59147;SDS011;44930;52.878;6.168;2023-05-10T08:38:57;21.27;;;14.02;;
59147;SDS011;44930;52.878;6.168;2023-05-10T08:41:23;19.33;;;13.43;;
59147;SDS011;44930;52.878;6.168;2023-05-10T08:43:51;16.00;;;10.77;;
59147;SDS011;44930;52.878;6.168;2023-05-10T08:46:18;10.35;;;7.10;;
59147;SDS011;44930;52.878;6.168;2023-05-10T08:48:46;7.28;;;5.07;;
59147;SDS011;44930;52.878;6.168;2023-05-10T08:51:14;5.15;;;4.47;;
59147;SDS011;44930;52.878;6.168;2023-05-10T08:53:42;5.55;;;3.33;;
59147;SDS011;44930;52.878;6.168;2023-05-10T08:56:09;8.82;;;3.67;;
59147;SDS011;44930;52.878;6.168;2023-05-10T08:58:34;4.53;;;3.55;;
59147;SDS011;44930;52.878;6.168;2023-05-10T09:01:01;3.75;;;3.17;;
59147;SDS011;44930;52.878;6.168;2023-05-10T09:03:28;5.45;;;3.17;;
59147;SDS011;44930;52.878;6.168;2023-05-10T09:05:54;3.97;;;2.70;;
59147;SDS011;44930;52.878;6.168;2023-05-10T09:08:20;6.00;;;2.70;;
59147;SDS011;44930;52.878;6.168;2023-05-10T09:10:50;6.88;;;3.15;;
59147;SDS011;44930;52.878;6.168;2023-05-10T09:13:16;3.85;;;2.83;;
59147;SDS011;44930;52.878;6.168;2023-05-10T09:15:43;4.35;;;2.80;;
59147;SDS011;44930;52.878;6.168;2023-05-10T09:18:10;3.85;;;2.97;;
59147;SDS011;44930;52.878;6.168;2023-05-10T09:20:36;6.97;;;3.20;;
59147;SDS011;44930;52.878;6.168;2023-05-10T09:23:01;3.88;;;3.25;;
59147;SDS011;44930;52.878;6.168;2023-05-10T09:25:27;4.40;;;3.60;;
59147;SDS011;44930;52.878;6.168;2023-05-10T09:27:52;6.38;;;3.85;;
59147;SDS011;44930;52.878;6.168;2023-05-10T09:30:25;4.20;;;3.80;;
59147;SDS011;44930;52.878;6.168;2023-05-10T09:32:52;5.13;;;4.05;;
59147;SDS011;44930;52.878;6.168;2023-05-10T09:35:20;5.88;;;3.92;;
59147;SDS011;44930;52.878;6.168;2023-05-10T09:37:48;4.88;;;4.32;;
59147;SDS011;44930;52.878;6.168;2023-05-10T09:40:22;5.57;;;4.07;;
59147;SDS011;44930;52.878;6.168;2023-05-10T09:45:20;6.57;;;4.30;;
59147;SDS011;44930;52.878;6.168;2023-05-10T09:47:47;7.32;;;4.13;;
59147;SDS011;44930;52.878;6.168;2023-05-10T09:50:13;8.85;;;5.05;;
59147;SDS011;44930;52.878;6.168;2023-05-10T09:55:40;9.00;;;4.63;;
59147;SDS011;44930;52.878;6.168;2023-05-10T09:58:09;9.25;;;6.13;;
59147;SDS011;44930;52.878;6.168;2023-05-10T10:00:45;11.25;;;7.65;;
59147;SDS011;44930;52.878;6.168;2023-05-10T10:03:17;8.88;;;6.47;;
59147;SDS011;44930;52.878;6.168;2023-05-10T10:05:44;10.98;;;6.63;;
59147;SDS011;44930;52.878;6.168;2023-05-10T10:08:11;12.00;;;7.18;;
59147;SDS011;44930;52.878;6.168;2023-05-10T10:10:37;11.18;;;7.75;;
59147;SDS011;44930;52.878;6.168;2023-05-10T10:13:06;11.18;;;8.30;;
59147;SDS011;44930;52.878;6.168;2023-05-10T10:15:32;9.93;;;6.90;;
59147;SDS011;44930;52.878;6.168;2023-05-10T10:17:59;9.90;;;6.35;;
59147;SDS011;44930;52.878;6.168;2023-05-10T10:20:25;8.95;;;6.38;;
59147;SDS011;44930;52.878;6.168;2023-05-10T10:22:52;8.30;;;6.25;;
59147;SDS011;44930;52.878;6.168;2023-05-10T10:25:18;6.90;;;5.47;;
59147;SDS011;44930;52.878;6.168;2023-05-10T10:30:36;8.15;;;5.20;;
59147;SDS011;44930;52.878;6.168;2023-05-10T10:35:52;5.35;;;4.32;;
59147;SDS011;44930;52.878;6.168;2023-05-10T10:38:19;5.50;;;3.40;;
59147;SDS011;44930;52.878;6.168;2023-05-10T10:40:45;5.38;;;3.65;;
59147;SDS011;44930;52.878;6.168;2023-05-10T10:43:22;7.43;;;4.50;;
59147;SDS011;44930;52.878;6.168;2023-05-10T10:48:35;7.43;;;4.85;;
59147;SDS011;44930;52.878;6.168;2023-05-10T10:51:00;8.40;;;5.20;;
59147;SDS011;44930;52.878;6.168;2023-05-10T10:53:27;8.82;;;6.32;;
59147;SDS011;44930;52.878;6.168;2023-05-10T10:56:02;5.55;;;4.25;;
59147;SDS011;44930;52.878;6.168;2023-05-10T10:58:33;5.50;;;3.65;;
59147;SDS011;44930;52.878;6.168;2023-05-10T11:01:16;6.28;;;3.75;;
59147;SDS011;44930;52.878;6.168;2023-05-10T11:04:25;4.40;;;3.70;;
59147;SDS011;44930;52.878;6.168;2023-05-10T11:06:32;4.80;;;3.65;;
59147;SDS011;44930;52.878;6.168;2023-05-10T11:09:10;3.85;;;3.13;;
59147;SDS011;44930;52.878;6.168;2023-05-10T11:11:51;5.88;;;4.75;;
59147;SDS011;44930;52.878;6.168;2023-05-10T11:14:20;7.03;;;5.05;;
59147;SDS011;44930;52.878;6.168;2023-05-10T11:16:47;7.70;;;4.63;;
59147;SDS011;44930;52.878;6.168;2023-05-10T11:19:13;7.82;;;5.22;;
59147;SDS011;44930;52.878;6.168;2023-05-10T11:24:30;9.70;;;5.93;;
59147;SDS011;44930;52.878;6.168;2023-05-10T11:26:56;9.18;;;6.65;;
59147;SDS011;44930;52.878;6.168;2023-05-10T11:29:22;11.50;;;7.00;;
59147;SDS011;44930;52.878;6.168;2023-05-10T11:31:48;8.27;;;6.28;;
59147;SDS011;44930;52.878;6.168;2023-05-10T11:34:27;11.82;;;6.47;;
59147;SDS011;44930;52.878;6.168;2023-05-10T11:36:55;10.45;;;7.22;;
59147;SDS011;44930;52.878;6.168;2023-05-10T11:39:25;10.65;;;7.40;;
59147;SDS011;44930;52.878;6.168;2023-05-10T11:41:52;9.70;;;7.60;;
59147;SDS011;44930;52.878;6.168;2023-05-10T11:44:18;12.35;;;7.75;;
59147;SDS011;44930;52.878;6.168;2023-05-10T11:46:43;16.05;;;9.55;;
59147;SDS011;44930;52.878;6.168;2023-05-10T11:49:09;17.52;;;11.27;;
59147;SDS011;44930;52.878;6.168;2023-05-10T11:51:35;18.38;;;12.20;;
59147;SDS011;44930;52.878;6.168;2023-05-10T11:54:04;16.55;;;11.20;;
59147;SDS011;44930;52.878;6.168;2023-05-10T11:56:32;17.48;;;11.65;;
59147;SDS011;44930;52.878;6.168;2023-05-10T11:58:58;16.60;;;9.65;;
59147;SDS011;44930;52.878;6.168;2023-05-10T12:01:25;13.63;;;10.18;;
59147;SDS011;44930;52.878;6.168;2023-05-10T12:03:52;13.00;;;8.88;;
59147;SDS011;44930;52.878;6.168;2023-05-10T12:06:19;12.90;;;9.65;;
59147;SDS011;44930;52.878;6.168;2023-05-10T12:08:45;12.35;;;9.52;;
59147;SDS011;44930;52.878;6.168;2023-05-10T12:11:13;12.20;;;9.43;;
59147;SDS011;44930;52.878;6.168;2023-05-10T12:13:40;17.80;;;9.32;;
59147;SDS011;44930;52.878;6.168;2023-05-10T12:16:20;14.32;;;8.77;;
59147;SDS011;44930;52.878;6.168;2023-05-10T12:18:55;13.20;;;8.55;;
59147;SDS011;44930;52.878;6.168;2023-05-10T12:21:22;11.88;;;8.27;;
59147;SDS011;44930;52.878;6.168;2023-05-10T12:23:52;11.98;;;9.00;;
59147;SDS011;44930;52.878;6.168;2023-05-10T12:26:21;12.52;;;8.15;;
59147;SDS011;44930;52.878;6.168;2023-05-10T12:28:47;11.15;;;8.57;;
59147;SDS011;44930;52.878;6.168;2023-05-10T12:31:13;12.68;;;8.80;;
59147;SDS011;44930;52.878;6.168;2023-05-10T12:33:39;12.73;;;8.23;;
59147;SDS011;44930;52.878;6.168;2023-05-10T12:36:07;12.82;;;8.95;;
59147;SDS011;44930;52.878;6.168;2023-05-10T12:38:35;11.52;;;8.48;;
59147;SDS011;44930;52.878;6.168;2023-05-10T12:41:07;13.70;;;8.50;;
59147;SDS011;44930;52.878;6.168;2023-05-10T12:43:38;10.80;;;8.02;;
59147;SDS011;44930;52.878;6.168;2023-05-10T12:46:05;10.50;;;7.80;;
59147;SDS011;44930;52.878;6.168;2023-05-10T12:48:30;10.88;;;8.00;;
59147;SDS011;44930;52.878;6.168;2023-05-10T12:50:56;11.32;;;8.23;;
59147;SDS011;44930;52.878;6.168;2023-05-10T12:53:22;12.43;;;8.65;;
59147;SDS011;44930;52.878;6.168;2023-05-10T12:55:47;12.70;;;9.25;;
59147;SDS011;44930;52.878;6.168;2023-05-10T12:58:13;10.02;;;8.20;;
59147;SDS011;44930;52.878;6.168;2023-05-10T13:00:39;15.25;;;9.23;;
59147;SDS011;44930;52.878;6.168;2023-05-10T13:03:04;12.05;;;8.88;;
59147;SDS011;44930;52.878;6.168;2023-05-10T13:05:31;12.70;;;10.10;;
59147;SDS011;44930;52.878;6.168;2023-05-10T13:07:57;11.55;;;9.13;;
59147;SDS011;44930;52.878;6.168;2023-05-10T13:10:23;13.63;;;9.07;;
59147;SDS011;44930;52.878;6.168;2023-05-10T13:12:49;13.82;;;9.25;;
59147;SDS011;44930;52.878;6.168;2023-05-10T13:15:15;13.68;;;10.02;;
59147;SDS011;44930;52.878;6.168;2023-05-10T13:17:41;13.73;;;9.90;;
59147;SDS011;44930;52.878;6.168;2023-05-10T13:20:07;11.73;;;9.52;;
59147;SDS011;44930;52.878;6.168;2023-05-10T13:22:34;11.93;;;9.10;;
59147;SDS011;44930;52.878;6.168;2023-05-10T13:25:00;13.13;;;8.30;;
59147;SDS011;44930;52.878;6.168;2023-05-10T13:27:26;12.65;;;8.32;;
59147;SDS011;44930;52.878;6.168;2023-05-10T13:29:51;12.68;;;8.57;;
59147;SDS011;44930;52.878;6.168;2023-05-10T13:32:17;12.07;;;8.93;;
59147;SDS011;44930;52.878;6.168;2023-05-10T13:34:43;13.38;;;8.80;;
59147;SDS011;44930;52.878;6.168;2023-05-10T13:37:09;10.95;;;8.50;;
59147;SDS011;44930;52.878;6.168;2023-05-10T13:39:34;11.68;;;8.98;;
59147;SDS011;44930;52.878;6.168;2023-05-10T13:42:02;13.52;;;8.63;;
59147;SDS011;44930;52.878;6.168;2023-05-10T13:44:28;12.48;;;8.85;;
59147;SDS011;44930;52.878;6.168;2023-05-10T13:46:53;13.88;;;9.88;;
59147;SDS011;44930;52.878;6.168;2023-05-10T13:49:20;14.02;;;9.18;;
59147;SDS011;44930;52.878;6.168;2023-05-10T13:51:47;12.40;;;9.82;;
59147;SDS011;44930;52.878;6.168;2023-05-10T13:54:12;11.68;;;9.18;;
59147;SDS011;44930;52.878;6.168;2023-05-10T13:56:38;10.77;;;8.00;;
59147;SDS011;44930;52.878;6.168;2023-05-10T13:59:04;9.35;;;6.47;;
59147;SDS011;44930;52.878;6.168;2023-05-10T14:01:29;11.30;;;6.63;;
59147;SDS011;44930;52.878;6.168;2023-05-10T14:03:55;9.15;;;6.30;;
59147;SDS011;44930;52.878;6.168;2023-05-10T14:06:20;8.13;;;6.80;;
59147;SDS011;44930;52.878;6.168;2023-05-10T14:08:46;9.90;;;6.60;;
59147;SDS011;44930;52.878;6.168;2023-05-10T14:11:12;8.38;;;6.35;;
59147;SDS011;44930;52.878;6.168;2023-05-10T14:13:37;10.57;;;6.85;;
59147;SDS011;44930;52.878;6.168;2023-05-10T14:16:03;7.82;;;5.75;;
59147;SDS011;44930;52.878;6.168;2023-05-10T14:18:29;9.52;;;7.18;;
59147;SDS011;44930;52.878;6.168;2023-05-10T14:20:54;9.10;;;7.80;;
59147;SDS011;44930;52.878;6.168;2023-05-10T14:23:21;9.82;;;6.80;;
59147;SDS011;44930;52.878;6.168;2023-05-10T14:25:49;10.32;;;7.05;;
59147;SDS011;44930;52.878;6.168;2023-05-10T14:28:16;9.15;;;6.57;;
59147;SDS011;44930;52.878;6.168;2023-05-10T14:30:43;6.72;;;5.90;;
59147;SDS011;44930;52.878;6.168;2023-05-10T14:33:09;9.70;;;6.07;;
59147;SDS011;44930;52.878;6.168;2023-05-10T14:35:35;12.52;;;5.85;;
59147;SDS011;44930;52.878;6.168;2023-05-10T14:38:01;8.15;;;6.68;;
59147;SDS011;44930;52.878;6.168;2023-05-10T14:40:28;8.88;;;6.25;;
59147;SDS011;44930;52.878;6.168;2023-05-10T14:42:54;12.38;;;8.18;;
59147;SDS011;44930;52.878;6.168;2023-05-10T14:45:21;10.13;;;7.03;;
59147;SDS011;44930;52.878;6.168;2023-05-10T14:47:47;12.50;;;7.95;;
59147;SDS011;44930;52.878;6.168;2023-05-10T14:50:13;10.05;;;6.55;;
59147;SDS011;44930;52.878;6.168;2023-05-10T14:52:38;7.10;;;5.97;;
59147;SDS011;44930;52.878;6.168;2023-05-10T14:55:04;6.57;;;4.82;;
59147;SDS011;44930;52.878;6.168;2023-05-10T14:57:30;5.70;;;4.55;;
59147;SDS011;44930;52.878;6.168;2023-05-10T14:59:56;5.65;;;3.42;;
59147;SDS011;44930;52.878;6.168;2023-05-10T15:02:22;4.28;;;2.33;;
59147;SDS011;44930;52.878;6.168;2023-05-10T15:04:47;5.95;;;3.53;;
59147;SDS011;44930;52.878;6.168;2023-05-10T15:07:13;4.70;;;3.10;;